Farnham, Canada
Current Conditions -  °F | °C
As of 11:35 AM on Friday 24 Oct 2014 (Local Time) from KFSO Reporting Station
Overcast Overcast  
Wind Chill: 40°   Ceiling: 2100
Heat Index: 44°   Visibility: 10mi
Dew Point: 39°   Wind: 7mph
Humidity: 81%   Direction: 350°N
Pressure: 29.86"   Gusts: NA
Location:  45.28°N, 72.97°W
Report Text: KFSO 241535Z AUTO 35006KT 10SM OVC021 07/04 A2986 RMK AO2 T00670037
Loading
Personal Weather Stations






























Interactive Weather Map
Tropical Storm Tracking
New forecast layout! Learn more

10-Day Weather Forecast

Advertisements
Track Severe Weather on mobile